sensor_id;sensor_type;location;lat;lon;timestamp;temperature;humidity
8965;DHT22;4517;49.020;12.066;2023-04-03T00:00:50;3.20;99.90
8965;DHT22;4517;49.020;12.066;2023-04-03T00:03:16;3.20;99.90
8965;DHT22;4517;49.020;12.066;2023-04-03T00:05:42;3.20;99.90
8965;DHT22;4517;49.020;12.066;2023-04-03T00:08:08;3.20;99.90
8965;DHT22;4517;49.020;12.066;2023-04-03T00:10:35;3.20;99.90
8965;DHT22;4517;49.020;12.066;2023-04-03T00:13:02;3.20;99.90
8965;DHT22;4517;49.020;12.066;2023-04-03T00:15:28;3.20;99.90
8965;DHT22;4517;49.020;12.066;2023-04-03T00:17:54;3.20;99.90
8965;DHT22;4517;49.020;12.066;2023-04-03T00:20:19;3.20;99.90
8965;DHT22;4517;49.020;12.066;2023-04-03T00:22:45;3.20;99.90
8965;DHT22;4517;49.020;12.066;2023-04-03T00:25:11;3.20;99.90
8965;DHT22;4517;49.020;12.066;2023-04-03T00:27:38;3.20;99.90
8965;DHT22;4517;49.020;12.066;2023-04-03T00:30:05;3.10;99.90
8965;DHT22;4517;49.020;12.066;2023-04-03T00:32:32;3.10;99.90
8965;DHT22;4517;49.020;12.066;2023-04-03T00:34:57;3.10;99.90
8965;DHT22;4517;49.020;12.066;2023-04-03T00:37:23;3.20;99.90
8965;DHT22;4517;49.020;12.066;2023-04-03T00:39:48;3.10;99.90
8965;DHT22;4517;49.020;12.066;2023-04-03T00:42:14;3.10;99.90
8965;DHT22;4517;49.020;12.066;2023-04-03T00:47:08;3.00;99.90
8965;DHT22;4517;49.020;12.066;2023-04-03T00:49:35;3.00;99.90
8965;DHT22;4517;49.020;12.066;2023-04-03T00:52:01;3.00;99.90
8965;DHT22;4517;49.020;12.066;2023-04-03T00:54:27;3.00;99.90
8965;DHT22;4517;49.020;12.066;2023-04-03T00:56:55;3.00;99.90
8965;DHT22;4517;49.020;12.066;2023-04-03T00:59:29;3.00;99.90
8965;DHT22;4517;49.020;12.066;2023-04-03T01:01:57;3.00;99.90
8965;DHT22;4517;49.020;12.066;2023-04-03T01:04:33;3.00;99.90
8965;DHT22;4517;49.020;12.066;2023-04-03T01:07:08;3.00;99.90
8965;DHT22;4517;49.020;12.066;2023-04-03T01:09:35;3.00;99.90
8965;DHT22;4517;49.020;12.066;2023-04-03T01:14:47;2.90;99.90
8965;DHT22;4517;49.020;12.066;2023-04-03T01:25:42;2.90;99.90
8965;DHT22;4517;49.020;12.066;2023-04-03T01:28:43;2.80;99.90
8965;DHT22;4517;49.020;12.066;2023-04-03T01:31:12;2.80;99.90
8965;DHT22;4517;49.020;12.066;2023-04-03T01:33:38;2.80;99.90
8965;DHT22;4517;49.020;12.066;2023-04-03T01:36:05;2.80;99.90
8965;DHT22;4517;49.020;12.066;2023-04-03T01:38:31;2.80;99.90
8965;DHT22;4517;49.020;12.066;2023-04-03T01:40:57;2.80;99.90
8965;DHT22;4517;49.020;12.066;2023-04-03T01:43:22;2.80;99.90
8965;DHT22;4517;49.020;12.066;2023-04-03T01:45:48;2.70;99.90
8965;DHT22;4517;49.020;12.066;2023-04-03T01:48:15;2.70;99.90
8965;DHT22;4517;49.020;12.066;2023-04-03T01:50:41;2.80;99.90
8965;DHT22;4517;49.020;12.066;2023-04-03T01:53:07;2.80;99.90
8965;DHT22;4517;49.020;12.066;2023-04-03T01:55:32;2.80;99.90
8965;DHT22;4517;49.020;12.066;2023-04-03T01:57:58;2.90;99.90
8965;DHT22;4517;49.020;12.066;2023-04-03T02:00:23;2.80;99.90
8965;DHT22;4517;49.020;12.066;2023-04-03T02:02:49;2.80;99.90
8965;DHT22;4517;49.020;12.066;2023-04-03T02:05:15;2.80;99.90
8965;DHT22;4517;49.020;12.066;2023-04-03T02:07:41;2.80;99.90
8965;DHT22;4517;49.020;12.066;2023-04-03T02:10:06;2.80;99.90
8965;DHT22;4517;49.020;12.066;2023-04-03T02:12:32;2.80;99.90
8965;DHT22;4517;49.020;12.066;2023-04-03T02:14:58;2.80;99.90
8965;DHT22;4517;49.020;12.066;2023-04-03T02:17:23;2.80;99.90
8965;DHT22;4517;49.020;12.066;2023-04-03T02:19:49;2.80;99.90
8965;DHT22;4517;49.020;12.066;2023-04-03T02:22:14;2.80;99.90
8965;DHT22;4517;49.020;12.066;2023-04-03T02:24:40;2.80;99.90
8965;DHT22;4517;49.020;12.066;2023-04-03T02:27:06;2.80;99.90
8965;DHT22;4517;49.020;12.066;2023-04-03T02:29:32;2.80;99.90
8965;DHT22;4517;49.020;12.066;2023-04-03T02:31:57;2.80;99.90
8965;DHT22;4517;49.020;12.066;2023-04-03T02:34:23;2.80;99.90
8965;DHT22;4517;49.020;12.066;2023-04-03T02:36:48;2.80;99.90
8965;DHT22;4517;49.020;12.066;2023-04-03T02:39:14;2.70;99.90
8965;DHT22;4517;49.020;12.066;2023-04-03T02:41:40;2.70;99.90
8965;DHT22;4517;49.020;12.066;2023-04-03T02:44:06;2.70;99.90
8965;DHT22;4517;49.020;12.066;2023-04-03T02:46:32;2.70;99.90
8965;DHT22;4517;49.020;12.066;2023-04-03T02:48:58;2.60;99.90
8965;DHT22;4517;49.020;12.066;2023-04-03T02:51:24;2.70;99.90
8965;DHT22;4517;49.020;12.066;2023-04-03T02:53:50;2.70;99.90
8965;DHT22;4517;49.020;12.066;2023-04-03T02:56:16;2.70;99.90
8965;DHT22;4517;49.020;12.066;2023-04-03T02:58:42;2.60;99.90
8965;DHT22;4517;49.020;12.066;2023-04-03T03:01:08;2.60;99.90
8965;DHT22;4517;49.020;12.066;2023-04-03T03:03:34;2.60;99.90
8965;DHT22;4517;49.020;12.066;2023-04-03T03:06:04;2.70;99.90
8965;DHT22;4517;49.020;12.066;2023-04-03T03:08:30;2.60;99.90
8965;DHT22;4517;49.020;12.066;2023-04-03T03:10:55;2.60;99.90
8965;DHT22;4517;49.020;12.066;2023-04-03T03:13:21;2.60;99.90
8965;DHT22;4517;49.020;12.066;2023-04-03T03:15:46;2.60;99.90
8965;DHT22;4517;49.020;12.066;2023-04-03T03:18:12;2.60;99.90
8965;DHT22;4517;49.020;12.066;2023-04-03T03:20:37;2.60;99.90
8965;DHT22;4517;49.020;12.066;2023-04-03T03:23:03;2.60;99.90
8965;DHT22;4517;49.020;12.066;2023-04-03T03:25:28;2.60;99.90
8965;DHT22;4517;49.020;12.066;2023-04-03T03:27:54;2.60;99.90
8965;DHT22;4517;49.020;12.066;2023-04-03T03:30:20;2.50;99.90
8965;DHT22;4517;49.020;12.066;2023-04-03T03:32:46;2.60;99.90
8965;DHT22;4517;49.020;12.066;2023-04-03T03:35:11;2.50;99.90
8965;DHT22;4517;49.020;12.066;2023-04-03T03:37:37;2.60;99.90
8965;DHT22;4517;49.020;12.066;2023-04-03T03:40:02;2.60;99.90
8965;DHT22;4517;49.020;12.066;2023-04-03T03:42:28;2.50;99.90
8965;DHT22;4517;49.020;12.066;2023-04-03T03:44:53;2.50;99.90
8965;DHT22;4517;49.020;12.066;2023-04-03T03:47:19;2.50;99.90
8965;DHT22;4517;49.020;12.066;2023-04-03T03:49:45;2.40;99.90
8965;DHT22;4517;49.020;12.066;2023-04-03T03:52:11;2.50;99.90
8965;DHT22;4517;49.020;12.066;2023-04-03T03:54:37;2.40;99.90
8965;DHT22;4517;49.020;12.066;2023-04-03T03:57:03;2.50;99.90
8965;DHT22;4517;49.020;12.066;2023-04-03T03:59:28;2.50;99.90
8965;DHT22;4517;49.020;12.066;2023-04-03T04:01:54;2.50;99.90
8965;DHT22;4517;49.020;12.066;2023-04-03T04:04:20;2.50;99.90
8965;DHT22;4517;49.020;12.066;2023-04-03T04:06:46;2.50;99.90
8965;DHT22;4517;49.020;12.066;2023-04-03T04:09:12;2.60;99.90
8965;DHT22;4517;49.020;12.066;2023-04-03T04:11:37;2.50;99.90
8965;DHT22;4517;49.020;12.066;2023-04-03T04:14:05;2.50;99.90
8965;DHT22;4517;49.020;12.066;2023-04-03T04:16:30;2.50;99.90
8965;DHT22;4517;49.020;12.066;2023-04-03T04:18:56;2.60;99.90
8965;DHT22;4517;49.020;12.066;2023-04-03T04:21:22;2.50;99.90
8965;DHT22;4517;49.020;12.066;2023-04-03T04:23:47;2.50;99.90
8965;DHT22;4517;49.020;12.066;2023-04-03T04:26:13;2.50;99.90
8965;DHT22;4517;49.020;12.066;2023-04-03T04:28:38;2.50;99.90
8965;DHT22;4517;49.020;12.066;2023-04-03T04:31:04;2.50;99.90
8965;DHT22;4517;49.020;12.066;2023-04-03T04:33:29;2.40;99.90
8965;DHT22;4517;49.020;12.066;2023-04-03T04:35:55;2.50;99.90
8965;DHT22;4517;49.020;12.066;2023-04-03T04:38:21;2.40;99.90
8965;DHT22;4517;49.020;12.066;2023-04-03T04:40:47;2.40;99.90
8965;DHT22;4517;49.020;12.066;2023-04-03T04:43:13;2.40;99.90
8965;DHT22;4517;49.020;12.066;2023-04-03T04:45:40;2.40;99.90
8965;DHT22;4517;49.020;12.066;2023-04-03T04:48:06;2.40;99.90
8965;DHT22;4517;49.020;12.066;2023-04-03T04:50:32;2.40;99.90
8965;DHT22;4517;49.020;12.066;2023-04-03T04:52:57;2.30;99.90
8965;DHT22;4517;49.020;12.066;2023-04-03T04:55:23;2.30;99.90
8965;DHT22;4517;49.020;12.066;2023-04-03T04:57:48;2.40;99.90
8965;DHT22;4517;49.020;12.066;2023-04-03T05:00:14;2.30;99.90
8965;DHT22;4517;49.020;12.066;2023-04-03T05:02:40;2.30;99.90
8965;DHT22;4517;49.020;12.066;2023-04-03T05:05:06;2.30;99.90
8965;DHT22;4517;49.020;12.066;2023-04-03T05:07:32;2.30;99.90
8965;DHT22;4517;49.020;12.066;2023-04-03T05:09:57;2.30;99.90
8965;DHT22;4517;49.020;12.066;2023-04-03T05:12:23;2.30;99.90
8965;DHT22;4517;49.020;12.066;2023-04-03T05:14:49;2.30;99.90
8965;DHT22;4517;49.020;12.066;2023-04-03T05:17:14;2.30;99.90
8965;DHT22;4517;49.020;12.066;2023-04-03T05:19:40;2.30;99.90
8965;DHT22;4517;49.020;12.066;2023-04-03T05:22:05;2.20;99.90
8965;DHT22;4517;49.020;12.066;2023-04-03T05:24:31;2.30;99.90
8965;DHT22;4517;49.020;12.066;2023-04-03T05:26:56;2.30;99.90
8965;DHT22;4517;49.020;12.066;2023-04-03T05:29:22;2.40;99.90
8965;DHT22;4517;49.020;12.066;2023-04-03T05:31:49;2.40;99.90
8965;DHT22;4517;49.020;12.066;2023-04-03T05:34:15;2.50;99.90
8965;DHT22;4517;49.020;12.066;2023-04-03T05:36:41;2.50;99.90
8965;DHT22;4517;49.020;12.066;2023-04-03T05:39:07;2.40;99.90
8965;DHT22;4517;49.020;12.066;2023-04-03T05:41:32;2.40;99.90
8965;DHT22;4517;49.020;12.066;2023-04-03T05:43:58;2.40;99.90
8965;DHT22;4517;49.020;12.066;2023-04-03T05:46:23;2.50;99.90
8965;DHT22;4517;49.020;12.066;2023-04-03T05:48:49;2.50;99.90
8965;DHT22;4517;49.020;12.066;2023-04-03T05:51:17;2.50;99.90
8965;DHT22;4517;49.020;12.066;2023-04-03T05:53:44;2.50;99.90
8965;DHT22;4517;49.020;12.066;2023-04-03T05:56:11;2.60;99.90
8965;DHT22;4517;49.020;12.066;2023-04-03T05:58:36;2.60;99.90
8965;DHT22;4517;49.020;12.066;2023-04-03T06:01:02;2.60;99.90
8965;DHT22;4517;49.020;12.066;2023-04-03T06:03:27;2.70;99.90
8965;DHT22;4517;49.020;12.066;2023-04-03T06:05:53;2.80;99.90
8965;DHT22;4517;49.020;12.066;2023-04-03T06:08:19;2.90;99.90
8965;DHT22;4517;49.020;12.066;2023-04-03T06:10:45;2.90;99.90
8965;DHT22;4517;49.020;12.066;2023-04-03T06:13:10;2.90;99.90
8965;DHT22;4517;49.020;12.066;2023-04-03T06:15:36;2.90;99.90
8965;DHT22;4517;49.020;12.066;2023-04-03T06:18:03;2.90;99.90
8965;DHT22;4517;49.020;12.066;2023-04-03T06:20:29;3.00;99.90
8965;DHT22;4517;49.020;12.066;2023-04-03T06:22:54;3.10;99.90
8965;DHT22;4517;49.020;12.066;2023-04-03T06:25:20;3.10;99.90
8965;DHT22;4517;49.020;12.066;2023-04-03T06:27:46;3.20;99.90
8965;DHT22;4517;49.020;12.066;2023-04-03T06:30:12;3.20;99.90
8965;DHT22;4517;49.020;12.066;2023-04-03T06:32:38;3.20;99.90
8965;DHT22;4517;49.020;12.066;2023-04-03T06:35:04;3.30;99.90
8965;DHT22;4517;49.020;12.066;2023-04-03T06:37:30;3.40;99.90
8965;DHT22;4517;49.020;12.066;2023-04-03T06:39:56;3.40;99.90
8965;DHT22;4517;49.020;12.066;2023-04-03T06:42:22;3.50;99.90
8965;DHT22;4517;49.020;12.066;2023-04-03T06:44:48;3.60;99.90
8965;DHT22;4517;49.020;12.066;2023-04-03T06:47:15;3.70;99.90
8965;DHT22;4517;49.020;12.066;2023-04-03T06:49:41;3.60;99.90
8965;DHT22;4517;49.020;12.066;2023-04-03T06:52:07;3.60;99.90
8965;DHT22;4517;49.020;12.066;2023-04-03T06:54:33;3.60;99.90
8965;DHT22;4517;49.020;12.066;2023-04-03T06:56:59;3.60;99.90
8965;DHT22;4517;49.020;12.066;2023-04-03T06:59:25;3.60;99.90
8965;DHT22;4517;49.020;12.066;2023-04-03T07:01:51;3.70;99.90
8965;DHT22;4517;49.020;12.066;2023-04-03T07:04:17;3.80;99.90
8965;DHT22;4517;49.020;12.066;2023-04-03T07:06:42;3.80;99.90
8965;DHT22;4517;49.020;12.066;2023-04-03T07:09:09;3.80;99.90
8965;DHT22;4517;49.020;12.066;2023-04-03T07:11:35;3.80;99.90
8965;DHT22;4517;49.020;12.066;2023-04-03T07:14:01;3.90;99.90
8965;DHT22;4517;49.020;12.066;2023-04-03T07:16:27;4.00;99.90
8965;DHT22;4517;49.020;12.066;2023-04-03T07:18:53;4.10;99.90
8965;DHT22;4517;49.020;12.066;2023-04-03T07:21:18;4.20;99.90
8965;DHT22;4517;49.020;12.066;2023-04-03T07:23:44;4.00;99.90
8965;DHT22;4517;49.020;12.066;2023-04-03T07:26:10;3.90;99.90
8965;DHT22;4517;49.020;12.066;2023-04-03T07:28:35;4.00;99.90
8965;DHT22;4517;49.020;12.066;2023-04-03T07:31:08;4.10;99.90
8965;DHT22;4517;49.020;12.066;2023-04-03T07:33:37;4.20;99.90
8965;DHT22;4517;49.020;12.066;2023-04-03T07:36:04;4.20;99.90
8965;DHT22;4517;49.020;12.066;2023-04-03T07:38:30;4.20;99.90
8965;DHT22;4517;49.020;12.066;2023-04-03T07:40:56;4.10;99.90
8965;DHT22;4517;49.020;12.066;2023-04-03T07:43:22;4.20;99.90
8965;DHT22;4517;49.020;12.066;2023-04-03T07:45:49;4.30;99.90
8965;DHT22;4517;49.020;12.066;2023-04-03T07:48:17;4.30;99.90
8965;DHT22;4517;49.020;12.066;2023-04-03T07:50:43;4.40;99.90
8965;DHT22;4517;49.020;12.066;2023-04-03T07:53:09;4.50;99.90
8965;DHT22;4517;49.020;12.066;2023-04-03T07:55:34;4.60;99.90
8965;DHT22;4517;49.020;12.066;2023-04-03T07:58:05;4.60;99.90
8965;DHT22;4517;49.020;12.066;2023-04-03T08:00:31;4.60;99.90
8965;DHT22;4517;49.020;12.066;2023-04-03T08:02:58;4.70;99.90
8965;DHT22;4517;49.020;12.066;2023-04-03T08:05:23;4.90;99.90
8965;DHT22;4517;49.020;12.066;2023-04-03T08:07:49;4.90;99.90
8965;DHT22;4517;49.020;12.066;2023-04-03T08:10:15;4.90;99.90
8965;DHT22;4517;49.020;12.066;2023-04-03T08:12:41;4.90;99.90
8965;DHT22;4517;49.020;12.066;2023-04-03T08:15:08;4.80;99.90
8965;DHT22;4517;49.020;12.066;2023-04-03T08:17:34;5.20;99.90
8965;DHT22;4517;49.020;12.066;2023-04-03T08:20:02;5.20;99.90
8965;DHT22;4517;49.020;12.066;2023-04-03T08:22:27;5.60;99.90
8965;DHT22;4517;49.020;12.066;2023-04-03T08:24:53;5.70;99.90
8965;DHT22;4517;49.020;12.066;2023-04-03T08:27:18;5.30;99.90
8965;DHT22;4517;49.020;12.066;2023-04-03T08:29:44;5.50;99.90
8965;DHT22;4517;49.020;12.066;2023-04-03T08:32:10;5.50;99.90
8965;DHT22;4517;49.020;12.066;2023-04-03T08:34:36;5.20;99.90
8965;DHT22;4517;49.020;12.066;2023-04-03T08:37:02;5.10;99.90
8965;DHT22;4517;49.020;12.066;2023-04-03T08:39:28;5.00;99.90
8965;DHT22;4517;49.020;12.066;2023-04-03T08:41:57;4.90;99.90
8965;DHT22;4517;49.020;12.066;2023-04-03T08:44:33;4.90;99.90
8965;DHT22;4517;49.020;12.066;2023-04-03T08:47:11;4.70;99.90
8965;DHT22;4517;49.020;12.066;2023-04-03T08:49:47;4.80;99.90
8965;DHT22;4517;49.020;12.066;2023-04-03T08:52:35;5.00;99.90
8965;DHT22;4517;49.020;12.066;2023-04-03T08:55:05;4.90;99.90
8965;DHT22;4517;49.020;12.066;2023-04-03T08:57:39;4.80;99.90
8965;DHT22;4517;49.020;12.066;2023-04-03T09:00:25;4.90;99.90
8965;DHT22;4517;49.020;12.066;2023-04-03T09:02:56;4.80;99.90
8965;DHT22;4517;49.020;12.066;2023-04-03T09:05:48;5.00;99.90
8965;DHT22;4517;49.020;12.066;2023-04-03T09:08:28;5.20;99.90
8965;DHT22;4517;49.020;12.066;2023-04-03T09:14:02;4.90;99.90
8965;DHT22;4517;49.020;12.066;2023-04-03T09:16:49;4.90;99.90
8965;DHT22;4517;49.020;12.066;2023-04-03T09:19:22;4.80;99.90
8965;DHT22;4517;49.020;12.066;2023-04-03T09:21:50;4.70;99.90
8965;DHT22;4517;49.020;12.066;2023-04-03T09:24:16;4.70;99.90
8965;DHT22;4517;49.020;12.066;2023-04-03T09:26:52;4.60;99.90
8965;DHT22;4517;49.020;12.066;2023-04-03T09:29:22;4.60;99.90
8965;DHT22;4517;49.020;12.066;2023-04-03T09:31:50;4.70;99.90
8965;DHT22;4517;49.020;12.066;2023-04-03T09:34:27;4.80;99.90
8965;DHT22;4517;49.020;12.066;2023-04-03T09:36:55;4.90;99.90
8965;DHT22;4517;49.020;12.066;2023-04-03T09:39:27;5.00;99.90
8965;DHT22;4517;49.020;12.066;2023-04-03T09:42:02;4.90;99.90
8965;DHT22;4517;49.020;12.066;2023-04-03T09:44:32;5.10;99.90
8965;DHT22;4517;49.020;12.066;2023-04-03T09:46:58;5.20;99.90
8965;DHT22;4517;49.020;12.066;2023-04-03T09:49:25;5.40;99.80
8965;DHT22;4517;49.020;12.066;2023-04-03T09:51:50;5.30;98.30
8965;DHT22;4517;49.020;12.066;2023-04-03T09:54:46;5.20;98.20
8965;DHT22;4517;49.020;12.066;2023-04-03T09:57:12;5.50;98.80
8965;DHT22;4517;49.020;12.066;2023-04-03T09:59:46;5.50;99.00
8965;DHT22;4517;49.020;12.066;2023-04-03T10:04:41;5.40;98.40
8965;DHT22;4517;49.020;12.066;2023-04-03T10:07:28;5.60;97.60
8965;DHT22;4517;49.020;12.066;2023-04-03T10:12:42;5.80;98.60
8965;DHT22;4517;49.020;12.066;2023-04-03T10:15:13;6.00;97.70
8965;DHT22;4517;49.020;12.066;2023-04-03T10:17:59;5.80;97.80
8965;DHT22;4517;49.020;12.066;2023-04-03T10:23:32;6.80;97.10
8965;DHT22;4517;49.020;12.066;2023-04-03T10:31:22;6.40;93.60
8965;DHT22;4517;49.020;12.066;2023-04-03T10:34:06;6.30;93.80
8965;DHT22;4517;49.020;12.066;2023-04-03T10:36:54;6.20;94.30
8965;DHT22;4517;49.020;12.066;2023-04-03T10:39:30;6.00;93.00
8965;DHT22;4517;49.020;12.066;2023-04-03T10:57:57;5.70;92.30
8965;DHT22;4517;49.020;12.066;2023-04-03T11:00:39;5.60;92.90
8965;DHT22;4517;49.020;12.066;2023-04-03T11:03:12;5.70;91.80
8965;DHT22;4517;49.020;12.066;2023-04-03T11:05:43;5.90;92.90
8965;DHT22;4517;49.020;12.066;2023-04-03T11:11:08;6.20;91.70
8965;DHT22;4517;49.020;12.066;2023-04-03T11:13:42;6.30;91.20
8965;DHT22;4517;49.020;12.066;2023-04-03T11:16:08;6.10;90.50
8965;DHT22;4517;49.020;12.066;2023-04-03T11:18:40;6.10;88.50
8965;DHT22;4517;49.020;12.066;2023-04-03T11:21:14;5.70;86.10
8965;DHT22;4517;49.020;12.066;2023-04-03T11:23:41;5.80;86.40
8965;DHT22;4517;49.020;12.066;2023-04-03T11:26:11;6.40;90.10
8965;DHT22;4517;49.020;12.066;2023-04-03T11:28:38;6.40;88.40
8965;DHT22;4517;49.020;12.066;2023-04-03T11:31:33;6.60;91.20
8965;DHT22;4517;49.020;12.066;2023-04-03T11:34:49;6.20;91.80
8965;DHT22;4517;49.020;12.066;2023-04-03T11:37:20;5.90;90.10
8965;DHT22;4517;49.020;12.066;2023-04-03T11:39:54;5.90;91.70
8965;DHT22;4517;49.020;12.066;2023-04-03T11:42:33;6.10;91.60
8965;DHT22;4517;49.020;12.066;2023-04-03T11:47:52;6.10;88.00
8965;DHT22;4517;49.020;12.066;2023-04-03T11:52:58;6.00;87.50
8965;DHT22;4517;49.020;12.066;2023-04-03T12:21:23;6.40;85.30
8965;DHT22;4517;49.020;12.066;2023-04-03T12:24:23;6.40;83.00
8965;DHT22;4517;49.020;12.066;2023-04-03T12:32:10;6.80;83.70
8965;DHT22;4517;49.020;12.066;2023-04-03T12:35:10;6.40;79.20
8965;DHT22;4517;49.020;12.066;2023-04-03T12:38:22;6.30;80.20
8965;DHT22;4517;49.020;12.066;2023-04-03T12:46:09;6.20;81.10
8965;DHT22;4517;49.020;12.066;2023-04-03T12:48:47;6.30;81.50
8965;DHT22;4517;49.020;12.066;2023-04-03T12:51:15;6.40;82.30
8965;DHT22;4517;49.020;12.066;2023-04-03T12:53:44;6.90;84.80
8965;DHT22;4517;49.020;12.066;2023-04-03T12:56:22;6.90;81.90
8965;DHT22;4517;49.020;12.066;2023-04-03T12:58:50;6.70;83.10
8965;DHT22;4517;49.020;12.066;2023-04-03T13:01:24;6.70;83.10
8965;DHT22;4517;49.020;12.066;2023-04-03T13:03:54;6.40;76.30
8965;DHT22;4517;49.020;12.066;2023-04-03T13:06:24;6.50;79.00
8965;DHT22;4517;49.020;12.066;2023-04-03T13:08:59;6.30;80.10
8965;DHT22;4517;49.020;12.066;2023-04-03T13:11:30;6.40;81.60
8965;DHT22;4517;49.020;12.066;2023-04-03T13:13:58;6.20;80.90
8965;DHT22;4517;49.020;12.066;2023-04-03T13:16:25;6.20;81.30
8965;DHT22;4517;49.020;12.066;2023-04-03T13:18:53;6.20;81.10
8965;DHT22;4517;49.020;12.066;2023-04-03T13:21:23;6.00;80.90
8965;DHT22;4517;49.020;12.066;2023-04-03T13:23:52;6.10;80.30
8965;DHT22;4517;49.020;12.066;2023-04-03T13:26:20;6.20;80.70
8965;DHT22;4517;49.020;12.066;2023-04-03T13:28:47;6.30;79.80
8965;DHT22;4517;49.020;12.066;2023-04-03T13:34:12;6.50;81.20
8965;DHT22;4517;49.020;12.066;2023-04-03T13:36:41;6.30;81.00
8965;DHT22;4517;49.020;12.066;2023-04-03T13:41:43;5.90;79.90
8965;DHT22;4517;49.020;12.066;2023-04-03T13:46:51;6.50;79.70
8965;DHT22;4517;49.020;12.066;2023-04-03T13:52:00;6.40;78.10
8965;DHT22;4517;49.020;12.066;2023-04-03T13:54:33;6.10;76.60
8965;DHT22;4517;49.020;12.066;2023-04-03T13:57:00;6.20;77.50
8965;DHT22;4517;49.020;12.066;2023-04-03T13:59:35;6.60;77.80
8965;DHT22;4517;49.020;12.066;2023-04-03T14:07:03;6.90;79.30
8965;DHT22;4517;49.020;12.066;2023-04-03T14:09:29;6.60;77.00
8965;DHT22;4517;49.020;12.066;2023-04-03T14:12:02;6.30;77.00
8965;DHT22;4517;49.020;12.066;2023-04-03T14:14:32;6.00;76.10
8965;DHT22;4517;49.020;12.066;2023-04-03T14:17:02;5.90;76.60
8965;DHT22;4517;49.020;12.066;2023-04-03T14:19:35;6.00;75.80
8965;DHT22;4517;49.020;12.066;2023-04-03T14:22:10;6.10;76.20
8965;DHT22;4517;49.020;12.066;2023-04-03T14:24:37;6.40;76.90
8965;DHT22;4517;49.020;12.066;2023-04-03T14:27:10;6.60;76.10
8965;DHT22;4517;49.020;12.066;2023-04-03T14:29:37;6.40;76.30
8965;DHT22;4517;49.020;12.066;2023-04-03T14:32:03;6.20;76.40
8965;DHT22;4517;49.020;12.066;2023-04-03T14:34:28;6.00;76.20
8965;DHT22;4517;49.020;12.066;2023-04-03T14:36:54;6.10;77.70
8965;DHT22;4517;49.020;12.066;2023-04-03T14:39:19;6.00;77.70
8965;DHT22;4517;49.020;12.066;2023-04-03T14:41:46;6.00;78.30
8965;DHT22;4517;49.020;12.066;2023-04-03T14:44:12;6.00;78.00
8965;DHT22;4517;49.020;12.066;2023-04-03T14:46:40;6.30;78.40
8965;DHT22;4517;49.020;12.066;2023-04-03T14:49:17;6.40;78.40
8965;DHT22;4517;49.020;12.066;2023-04-03T14:51:43;6.90;80.60
8965;DHT22;4517;49.020;12.066;2023-04-03T14:54:18;6.80;79.50
8965;DHT22;4517;49.020;12.066;2023-04-03T14:56:46;6.40;79.00
8965;DHT22;4517;49.020;12.066;2023-04-03T14:59:13;6.20;80.00
8965;DHT22;4517;49.020;12.066;2023-04-03T15:01:39;6.00;79.40
8965;DHT22;4517;49.020;12.066;2023-04-03T15:04:14;5.70;78.20
8965;DHT22;4517;49.020;12.066;2023-04-03T15:06:40;5.50;78.10
8965;DHT22;4517;49.020;12.066;2023-04-03T15:09:14;5.70;75.90
8965;DHT22;4517;49.020;12.066;2023-04-03T15:11:43;5.70;75.10
8965;DHT22;4517;49.020;12.066;2023-04-03T15:14:09;5.90;76.30
8965;DHT22;4517;49.020;12.066;2023-04-03T15:16:35;6.10;77.30
8965;DHT22;4517;49.020;12.066;2023-04-03T15:19:01;6.10;77.50
8965;DHT22;4517;49.020;12.066;2023-04-03T15:21:26;6.30;78.90
8965;DHT22;4517;49.020;12.066;2023-04-03T15:23:52;6.30;77.20
8965;DHT22;4517;49.020;12.066;2023-04-03T15:26:17;6.00;75.60
8965;DHT22;4517;49.020;12.066;2023-04-03T15:28:43;5.70;75.20
8965;DHT22;4517;49.020;12.066;2023-04-03T15:31:10;5.50;75.10
8965;DHT22;4517;49.020;12.066;2023-04-03T15:33:36;5.30;76.50
8965;DHT22;4517;49.020;12.066;2023-04-03T15:36:03;5.30;76.00
8965;DHT22;4517;49.020;12.066;2023-04-03T15:38:30;5.30;77.20
8965;DHT22;4517;49.020;12.066;2023-04-03T15:40:55;5.40;76.30
8965;DHT22;4517;49.020;12.066;2023-04-03T15:43:22;5.60;77.10
8965;DHT22;4517;49.020;12.066;2023-04-03T15:45:48;5.70;75.20
8965;DHT22;4517;49.020;12.066;2023-04-03T15:48:14;5.50;74.00
8965;DHT22;4517;49.020;12.066;2023-04-03T15:50:40;5.50;75.00
8965;DHT22;4517;49.020;12.066;2023-04-03T15:53:07;5.60;75.70
8965;DHT22;4517;49.020;12.066;2023-04-03T15:55:34;5.50;76.00
8965;DHT22;4517;49.020;12.066;2023-04-03T15:58:01;5.50;76.70
8965;DHT22;4517;49.020;12.066;2023-04-03T16:00:28;5.50;77.50
8965;DHT22;4517;49.020;12.066;2023-04-03T16:03:04;5.50;77.90
8965;DHT22;4517;49.020;12.066;2023-04-03T16:05:31;5.50;77.40
8965;DHT22;4517;49.020;12.066;2023-04-03T16:07:58;5.60;77.60
8965;DHT22;4517;49.020;12.066;2023-04-03T16:10:24;5.60;76.60
8965;DHT22;4517;49.020;12.066;2023-04-03T16:12:50;5.60;76.40
8965;DHT22;4517;49.020;12.066;2023-04-03T16:15:16;5.70;77.00
8965;DHT22;4517;49.020;12.066;2023-04-03T16:17:42;5.60;78.10
8965;DHT22;4517;49.020;12.066;2023-04-03T16:20:09;5.40;79.10
8965;DHT22;4517;49.020;12.066;2023-04-03T16:22:36;5.20;79.20
8965;DHT22;4517;49.020;12.066;2023-04-03T16:25:02;5.10;79.50
8965;DHT22;4517;49.020;12.066;2023-04-03T16:27:28;4.80;77.80
8965;DHT22;4517;49.020;12.066;2023-04-03T16:29:56;4.70;79.20
8965;DHT22;4517;49.020;12.066;2023-04-03T16:32:23;4.50;78.30
8965;DHT22;4517;49.020;12.066;2023-04-03T16:34:49;4.40;79.10
8965;DHT22;4517;49.020;12.066;2023-04-03T16:37:16;4.30;80.50
8965;DHT22;4517;49.020;12.066;2023-04-03T16:39:42;4.30;78.60
8965;DHT22;4517;49.020;12.066;2023-04-03T16:42:07;4.20;78.40
8965;DHT22;4517;49.020;12.066;2023-04-03T16:44:34;4.20;79.70
8965;DHT22;4517;49.020;12.066;2023-04-03T16:47:00;4.20;80.60
8965;DHT22;4517;49.020;12.066;2023-04-03T16:49:26;4.10;80.30
8965;DHT22;4517;49.020;12.066;2023-04-03T16:51:55;4.10;79.20
8965;DHT22;4517;49.020;12.066;2023-04-03T16:54:20;4.10;80.70
8965;DHT22;4517;49.020;12.066;2023-04-03T16:56:46;4.10;80.60
8965;DHT22;4517;49.020;12.066;2023-04-03T16:59:13;4.10;81.60
8965;DHT22;4517;49.020;12.066;2023-04-03T17:01:38;4.20;82.70
8965;DHT22;4517;49.020;12.066;2023-04-03T17:04:04;4.10;83.80
8965;DHT22;4517;49.020;12.066;2023-04-03T17:06:30;4.00;84.20
8965;DHT22;4517;49.020;12.066;2023-04-03T17:08:55;3.90;84.80
8965;DHT22;4517;49.020;12.066;2023-04-03T17:11:21;3.90;84.80
8965;DHT22;4517;49.020;12.066;2023-04-03T17:13:47;3.80;85.30
8965;DHT22;4517;49.020;12.066;2023-04-03T17:16:14;3.70;83.00
8965;DHT22;4517;49.020;12.066;2023-04-03T17:18:41;3.60;83.00
8965;DHT22;4517;49.020;12.066;2023-04-03T17:21:08;3.60;83.70
8965;DHT22;4517;49.020;12.066;2023-04-03T17:23:35;3.50;83.10
8965;DHT22;4517;49.020;12.066;2023-04-03T17:26:02;3.50;84.10
8965;DHT22;4517;49.020;12.066;2023-04-03T17:28:28;3.40;84.10
8965;DHT22;4517;49.020;12.066;2023-04-03T17:30:55;3.40;85.10
8965;DHT22;4517;49.020;12.066;2023-04-03T17:33:21;3.30;85.40
8965;DHT22;4517;49.020;12.066;2023-04-03T17:35:46;3.20;86.20
8965;DHT22;4517;49.020;12.066;2023-04-03T17:38:12;3.20;86.70
8965;DHT22;4517;49.020;12.066;2023-04-03T17:40:38;3.10;87.30
8965;DHT22;4517;49.020;12.066;2023-04-03T17:43:04;3.00;87.20
8965;DHT22;4517;49.020;12.066;2023-04-03T17:45:30;2.90;86.30
8965;DHT22;4517;49.020;12.066;2023-04-03T17:47:55;2.90;86.30
8965;DHT22;4517;49.020;12.066;2023-04-03T17:50:21;2.80;86.10
8965;DHT22;4517;49.020;12.066;2023-04-03T17:52:47;2.70;85.10
8965;DHT22;4517;49.020;12.066;2023-04-03T17:55:12;2.60;85.80